createdAt,value
2023-09-02T00:00:01.274Z,66.10
2023-09-02T00:02:28.147Z,66.20
2023-09-02T00:04:54.953Z,66.60
2023-09-02T00:07:21.705Z,66.60
2023-09-02T00:09:48.504Z,67.00
2023-09-02T00:12:15.344Z,66.60
2023-09-02T00:14:42.120Z,67.00
2023-09-02T00:17:08.906Z,67.00
2023-09-02T00:19:35.723Z,67.20
2023-09-02T00:22:02.500Z,67.60
2023-09-02T00:24:29.266Z,67.60
2023-09-02T00:26:56.078Z,67.70
2023-09-02T00:29:22.879Z,67.90
2023-09-02T00:31:49.789Z,67.80
2023-09-02T00:34:16.615Z,68.20
2023-09-02T00:36:43.407Z,68.80
2023-09-02T00:39:10.316Z,69.00
2023-09-02T00:41:39.558Z,69.30
2023-09-02T00:44:07.207Z,69.50
2023-09-02T00:46:34.459Z,69.90
2023-09-02T00:49:01.797Z,69.90
2023-09-02T00:51:28.666Z,69.70
2023-09-02T00:53:56.035Z,70.00
2023-09-02T00:56:25.156Z,70.00
2023-09-02T00:58:53.332Z,69.90
2023-09-02T01:01:21.037Z,69.60
2023-09-02T01:03:47.941Z,69.50
2023-09-02T01:06:15.346Z,69.50
2023-09-02T01:08:42.241Z,69.40
2023-09-02T01:11:09.415Z,69.40
2023-09-02T01:13:36.305Z,69.30
2023-09-02T01:16:04.142Z,69.50
2023-09-02T01:18:31.398Z,69.50
2023-09-02T01:21:26.975Z,69.50
2023-09-02T01:23:53.860Z,69.30
2023-09-02T01:26:23.446Z,69.50
2023-09-02T01:28:53.972Z,69.20
2023-09-02T01:31:22.552Z,69.30
2023-09-02T01:33:53.899Z,69.40
2023-09-02T01:36:23.687Z,69.50
2023-09-02T01:38:54.111Z,69.40
2023-09-02T01:41:23.578Z,69.40
2023-09-02T01:43:52.106Z,69.30
2023-09-02T01:46:20.005Z,69.70
2023-09-02T01:48:48.198Z,69.80
2023-09-02T01:51:15.293Z,69.40
2023-09-02T01:53:42.374Z,69.60
2023-09-02T01:56:09.377Z,69.20
2023-09-02T01:58:36.128Z,69.50
2023-09-02T02:01:03.274Z,0.00
2023-09-02T02:03:35.866Z,69.20
2023-09-02T02:06:03.456Z,69.30
2023-09-02T02:08:32.415Z,69.30
2023-09-02T02:11:01.765Z,69.70
2023-09-02T02:13:28.579Z,69.90
2023-09-02T02:15:55.636Z,69.90
2023-09-02T02:18:22.543Z,70.20
2023-09-02T02:21:01.723Z,70.80
2023-09-02T02:23:28.473Z,70.80
2023-09-02T02:26:06.076Z,71.20
2023-09-02T02:28:33.333Z,71.50
2023-09-02T02:31:00.296Z,71.20
2023-09-02T02:33:27.258Z,71.40
2023-09-02T02:35:54.155Z,71.70
2023-09-02T02:38:20.976Z,71.70
2023-09-02T02:40:47.853Z,71.70
2023-09-02T02:43:14.618Z,71.80
2023-09-02T02:45:42.667Z,71.80
2023-09-02T02:48:16.646Z,72.10
2023-09-02T02:50:43.991Z,72.10
2023-09-02T02:53:10.826Z,71.90
2023-09-02T02:55:37.666Z,71.90
2023-09-02T02:58:04.552Z,72.00
2023-09-02T03:00:31.494Z,71.90
2023-09-02T03:02:58.379Z,71.80
2023-09-02T03:05:25.248Z,71.90
2023-09-02T03:07:52.709Z,71.80
2023-09-02T03:10:19.546Z,71.80
2023-09-02T03:12:46.493Z,71.80
2023-09-02T03:15:13.334Z,71.60
2023-09-02T03:17:40.084Z,71.60
2023-09-02T03:20:07.482Z,71.80
2023-09-02T03:22:34.313Z,71.90
2023-09-02T03:25:01.168Z,71.90
2023-09-02T03:27:27.912Z,72.10
2023-09-02T03:29:54.831Z,72.10
2023-09-02T03:32:21.556Z,72.30
2023-09-02T03:34:48.283Z,72.40
2023-09-02T03:37:15.072Z,72.20
2023-09-02T03:39:41.857Z,72.20
2023-09-02T03:42:08.682Z,72.50
2023-09-02T03:44:35.579Z,72.30
2023-09-02T03:47:02.573Z,72.50
2023-09-02T03:49:29.505Z,72.50
2023-09-02T03:51:56.278Z,72.50
2023-09-02T03:54:23.117Z,72.50
2023-09-02T03:56:49.966Z,72.60
2023-09-02T03:59:16.758Z,72.70
2023-09-02T04:01:43.616Z,72.80
2023-09-02T04:04:10.457Z,73.00
2023-09-02T04:06:39.174Z,72.70
2023-09-02T04:09:07.326Z,72.70
2023-09-02T04:11:34.384Z,72.60
2023-09-02T04:14:01.967Z,72.50
2023-09-02T04:16:28.776Z,72.80
2023-09-02T04:18:55.716Z,72.90
2023-09-02T04:21:23.012Z,72.90
2023-09-02T04:23:49.776Z,73.20
2023-09-02T04:26:20.068Z,73.20
2023-09-02T04:28:46.842Z,73.40
2023-09-02T04:31:13.760Z,73.50
2023-09-02T04:33:41.189Z,73.30
2023-09-02T04:36:08.092Z,73.30
2023-09-02T04:38:34.952Z,73.40
2023-09-02T04:41:08.204Z,73.40
2023-09-02T04:43:39.332Z,73.40
2023-09-02T04:46:06.506Z,73.60
2023-09-02T04:48:33.392Z,73.40
2023-09-02T04:51:00.635Z,73.60
2023-09-02T04:53:27.447Z,73.50
2023-09-02T04:55:54.202Z,73.30
2023-09-02T04:58:22.656Z,73.30
2023-09-02T05:00:49.435Z,73.40
2023-09-02T05:03:16.410Z,73.30
2023-09-02T05:05:45.153Z,73.50
2023-09-02T05:08:11.965Z,73.40
2023-09-02T05:10:38.808Z,73.50
2023-09-02T05:13:05.708Z,73.60
2023-09-02T05:15:32.538Z,73.50
2023-09-02T05:18:02.210Z,73.30
2023-09-02T05:20:29.118Z,72.90
2023-09-02T05:22:55.956Z,73.00
2023-09-02T05:25:23.034Z,73.00
2023-09-02T05:27:50.236Z,72.80
2023-09-02T05:30:17.061Z,72.90
2023-09-02T05:32:43.906Z,73.30
2023-09-02T05:35:10.735Z,72.70
2023-09-02T05:37:37.580Z,73.00
2023-09-02T05:40:04.849Z,72.90
2023-09-02T05:42:31.655Z,73.00
2023-09-02T05:44:58.483Z,72.80
2023-09-02T05:47:26.465Z,73.30
2023-09-02T05:49:53.242Z,73.20
2023-09-02T05:52:20.101Z,73.00
2023-09-02T05:54:46.884Z,72.50
2023-09-02T05:57:13.639Z,72.30
2023-09-02T05:59:40.402Z,72.70
2023-09-02T06:02:07.447Z,72.40
2023-09-02T06:04:34.247Z,72.30
2023-09-02T06:07:01.063Z,72.50
2023-09-02T06:09:30.778Z,72.20
2023-09-02T06:11:57.621Z,72.60
2023-09-02T06:14:24.464Z,72.40
2023-09-02T06:16:51.967Z,72.30
2023-09-02T06:19:19.078Z,72.30
2023-09-02T06:21:46.837Z,72.20
2023-09-02T06:24:13.654Z,72.20
2023-09-02T06:26:40.678Z,72.30
2023-09-02T06:29:07.412Z,72.10
2023-09-02T06:31:34.236Z,72.20
2023-09-02T06:34:01.113Z,72.20
2023-09-02T06:36:27.868Z,71.80
2023-09-02T06:38:54.758Z,71.90
2023-09-02T06:41:21.669Z,71.90
2023-09-02T06:43:48.464Z,71.30
2023-09-02T06:46:20.911Z,70.80
2023-09-02T06:48:48.849Z,70.80
2023-09-02T06:51:16.254Z,70.70
2023-09-02T06:53:44.204Z,70.70
2023-09-02T06:56:14.698Z,70.60
2023-09-02T06:58:43.674Z,70.50
2023-09-02T07:01:23.835Z,70.10
2023-09-02T07:03:51.777Z,70.10
2023-09-02T07:06:19.757Z,69.90
2023-09-02T07:08:46.933Z,69.60
2023-09-02T07:11:14.367Z,69.50
2023-09-02T07:13:46.802Z,69.20
2023-09-02T07:16:14.247Z,69.30
2023-09-02T07:18:41.076Z,69.20
2023-09-02T07:21:08.349Z,69.30
2023-09-02T07:23:35.634Z,68.80
2023-09-02T07:26:05.412Z,69.00
2023-09-02T07:28:33.389Z,68.90
2023-09-02T07:31:02.572Z,0.00
2023-09-02T07:33:30.362Z,68.40
2023-09-02T07:35:58.591Z,68.40
2023-09-02T07:38:26.179Z,67.90
2023-09-02T07:40:53.129Z,67.90
2023-09-02T07:43:20.204Z,67.80
2023-09-02T07:45:49.157Z,67.60
2023-09-02T07:48:16.295Z,67.50
2023-09-02T07:50:43.591Z,67.50
2023-09-02T07:53:10.949Z,67.20
2023-09-02T07:55:38.576Z,67.10
2023-09-02T07:58:05.567Z,67.00
2023-09-02T08:00:37.885Z,66.60
2023-09-02T08:03:05.386Z,65.20
2023-09-02T08:05:32.521Z,64.80
2023-09-02T08:07:59.414Z,64.50
2023-09-02T08:10:26.166Z,64.50
2023-09-02T08:12:52.971Z,64.30
2023-09-02T08:15:19.852Z,64.00
2023-09-02T08:17:46.697Z,63.90
2023-09-02T08:20:14.332Z,63.70
2023-09-02T08:22:44.062Z,63.90
2023-09-02T08:25:12.013Z,63.90
2023-09-02T08:27:38.877Z,63.70
2023-09-02T08:30:06.482Z,63.70
2023-09-02T08:32:33.928Z,63.60
2023-09-02T08:35:00.883Z,63.40
2023-09-02T08:37:27.764Z,63.20
2023-09-02T08:39:54.629Z,63.00
2023-09-02T08:42:22.124Z,63.10
2023-09-02T08:44:49.832Z,63.00
2023-09-02T08:47:21.299Z,63.10
2023-09-02T08:49:50.786Z,63.20
2023-09-02T08:52:17.700Z,63.10
2023-09-02T08:54:45.356Z,62.90
2023-09-02T08:57:17.601Z,63.00
2023-09-02T08:59:44.605Z,62.20
2023-09-02T09:02:14.580Z,62.10
2023-09-02T09:04:41.780Z,61.60
2023-09-02T09:07:10.847Z,61.60
2023-09-02T09:09:38.695Z,61.40
2023-09-02T09:12:08.228Z,61.30
2023-09-02T09:14:38.701Z,61.40
2023-09-02T09:17:06.203Z,61.40
2023-09-02T09:19:34.819Z,61.70
2023-09-02T09:22:04.913Z,61.60
2023-09-02T09:24:31.804Z,61.40
2023-09-02T09:27:06.384Z,61.50
2023-09-02T09:29:43.397Z,61.70
2023-09-02T09:32:12.677Z,61.30
2023-09-02T09:34:40.960Z,61.40
2023-09-02T09:37:09.424Z,61.30
2023-09-02T09:39:44.914Z,61.30
2023-09-02T09:42:13.997Z,60.10
2023-09-02T09:44:55.508Z,59.50
2023-09-02T09:47:27.071Z,59.20
2023-09-02T09:49:54.199Z,59.80
2023-09-02T09:52:22.165Z,59.10
2023-09-02T09:54:53.761Z,58.50
2023-09-02T09:57:36.984Z,58.30
2023-09-02T10:00:06.344Z,57.60
2023-09-02T10:02:33.350Z,57.60
2023-09-02T10:05:02.178Z,57.40
2023-09-02T10:07:34.955Z,57.20
2023-09-02T10:10:06.263Z,56.20
2023-09-02T10:12:38.999Z,55.70
2023-09-02T10:15:07.461Z,56.70
2023-09-02T10:17:36.139Z,56.70
2023-09-02T10:20:03.166Z,55.70
2023-09-02T10:22:33.064Z,55.40
2023-09-02T10:25:20.014Z,55.60
2023-09-02T10:27:52.242Z,55.80
2023-09-02T10:30:26.210Z,55.80
2023-09-02T10:32:55.396Z,56.00
2023-09-02T10:35:23.558Z,56.10
2023-09-02T10:37:50.469Z,56.00
2023-09-02T10:40:29.038Z,56.30
2023-09-02T10:42:56.394Z,56.60
2023-09-02T10:45:23.548Z,56.40
2023-09-02T10:47:51.516Z,55.60
2023-09-02T10:50:21.178Z,55.60
2023-09-02T10:53:00.639Z,55.40
2023-09-02T10:55:59.173Z,55.20
2023-09-02T10:58:26.068Z,54.50
2023-09-02T11:00:54.402Z,54.80
2023-09-02T11:03:44.832Z,54.70
2023-09-02T11:06:13.832Z,54.80
2023-09-02T11:08:51.338Z,53.50
2023-09-02T11:11:19.393Z,53.70
2023-09-02T11:14:08.151Z,53.80
2023-09-02T11:16:36.534Z,53.40
2023-09-02T11:19:09.617Z,53.00
2023-09-02T11:21:43.937Z,53.10
2023-09-02T11:24:17.785Z,53.40
2023-09-02T11:26:57.553Z,53.90
2023-09-02T11:29:26.428Z,53.30
2023-09-02T11:32:00.778Z,52.40
2023-09-02T11:34:29.267Z,52.10
2023-09-02T11:36:57.671Z,52.60
2023-09-02T11:39:28.815Z,52.90
2023-09-02T11:42:11.870Z,52.70
2023-09-02T11:44:39.159Z,52.70
2023-09-02T11:47:08.025Z,52.40
2023-09-02T11:49:36.352Z,51.90
2023-09-02T11:52:03.679Z,52.00
2023-09-02T11:54:30.513Z,51.90
2023-09-02T11:57:02.087Z,52.30
2023-09-02T11:59:30.667Z,51.70
2023-09-02T12:02:16.738Z,52.00
2023-09-02T12:04:48.908Z,51.70
2023-09-02T12:07:15.885Z,51.70
2023-09-02T12:09:43.672Z,52.30
2023-09-02T12:12:10.593Z,52.00
2023-09-02T12:14:38.358Z,51.50
2023-09-02T12:17:06.539Z,51.10
2023-09-02T12:19:37.335Z,50.60
2023-09-02T12:22:04.753Z,0.00
2023-09-02T12:24:32.132Z,50.20
2023-09-02T12:26:59.991Z,50.30
2023-09-02T12:29:27.025Z,49.80
2023-09-02T12:32:01.404Z,49.30
2023-09-02T12:34:36.438Z,49.90
2023-09-02T12:37:22.323Z,50.50
2023-09-02T12:39:50.532Z,50.50
2023-09-02T12:42:23.844Z,49.50
2023-09-02T12:45:03.529Z,49.60
2023-09-02T12:47:31.146Z,48.90
2023-09-02T12:49:59.789Z,48.50
2023-09-02T12:52:31.293Z,48.60
2023-09-02T12:55:02.940Z,49.00
2023-09-02T12:57:36.765Z,49.20
2023-09-02T13:00:04.846Z,49.80
2023-09-02T13:02:32.770Z,49.80
2023-09-02T13:05:00.168Z,49.30
2023-09-02T13:07:27.214Z,49.20
2023-09-02T13:09:54.175Z,48.50
2023-09-02T13:12:21.478Z,48.50
2023-09-02T13:14:49.061Z,48.50
2023-09-02T13:17:17.142Z,48.40
2023-09-02T13:19:45.381Z,48.60
2023-09-02T13:22:12.599Z,48.40
2023-09-02T13:24:40.371Z,48.30
2023-09-02T13:27:09.354Z,48.20
2023-09-02T13:29:36.120Z,48.20
2023-09-02T13:32:10.390Z,48.00
2023-09-02T13:34:38.193Z,47.80
2023-09-02T13:37:22.020Z,47.20
2023-09-02T13:40:05.835Z,47.20
2023-09-02T13:42:33.553Z,48.00
2023-09-02T13:45:29.469Z,48.50
2023-09-02T13:47:57.545Z,48.60
2023-09-02T13:50:24.915Z,48.90
2023-09-02T13:52:53.455Z,48.20
2023-09-02T13:55:22.229Z,48.00
2023-09-02T13:57:49.913Z,48.90
2023-09-02T14:00:38.901Z,48.60
2023-09-02T14:03:30.736Z,47.30
2023-09-02T14:06:02.049Z,47.10
2023-09-02T14:08:40.411Z,46.70
2023-09-02T14:11:08.020Z,46.00
2023-09-02T14:13:40.479Z,45.70
2023-09-02T14:16:08.396Z,45.80
2023-09-02T14:18:35.403Z,45.50
2023-09-02T14:21:02.476Z,45.50
2023-09-02T14:23:29.310Z,45.10
2023-09-02T14:25:56.096Z,45.50
2023-09-02T14:28:24.018Z,45.40
2023-09-02T14:30:50.979Z,45.80
2023-09-02T14:33:18.363Z,45.50
2023-09-02T14:35:45.445Z,45.30
2023-09-02T14:38:12.404Z,45.00
2023-09-02T14:40:39.211Z,45.00
2023-09-02T14:43:06.075Z,45.20
2023-09-02T14:45:33.762Z,45.00
2023-09-02T14:48:01.114Z,45.20
2023-09-02T14:50:28.939Z,45.40
2023-09-02T14:52:56.065Z,44.70
2023-09-02T14:55:22.925Z,44.80
2023-09-02T14:57:53.543Z,44.30
2023-09-02T15:00:20.602Z,43.50
2023-09-02T15:02:48.178Z,43.30
2023-09-02T15:05:18.963Z,43.30
2023-09-02T15:07:47.240Z,43.20
2023-09-02T15:10:24.319Z,43.10
2023-09-02T15:12:51.327Z,43.10
2023-09-02T15:15:25.494Z,42.90
2023-09-02T15:17:53.008Z,42.60
2023-09-02T15:20:29.969Z,42.20
2023-09-02T15:22:57.500Z,42.40
2023-09-02T15:25:28.099Z,43.00
2023-09-02T15:27:56.283Z,43.50
2023-09-02T15:30:30.638Z,44.10
2023-09-02T15:32:59.111Z,43.90
2023-09-02T15:35:26.036Z,44.00
2023-09-02T15:37:52.980Z,44.00
2023-09-02T15:40:29.080Z,44.20
2023-09-02T15:43:02.135Z,43.80
2023-09-02T15:45:29.197Z,44.60
2023-09-02T15:47:56.598Z,44.90
2023-09-02T15:50:23.734Z,44.60
2023-09-02T15:52:52.177Z,44.70
2023-09-02T15:55:20.078Z,44.90
2023-09-02T15:57:46.959Z,0.00
2023-09-02T16:00:13.914Z,45.80
2023-09-02T16:02:40.952Z,45.70
2023-09-02T16:05:08.202Z,46.40
2023-09-02T16:07:35.083Z,46.40
2023-09-02T16:10:02.144Z,45.70
2023-09-02T16:12:28.999Z,46.60
2023-09-02T16:14:55.766Z,46.80
2023-09-02T16:17:29.166Z,46.80
2023-09-02T16:19:56.285Z,47.00
2023-09-02T16:22:23.405Z,46.70
2023-09-02T16:24:53.284Z,46.80
2023-09-02T16:27:20.124Z,46.30
2023-09-02T16:29:48.497Z,46.30
2023-09-02T16:32:15.921Z,46.40
2023-09-02T16:34:46.288Z,46.50
2023-09-02T16:37:15.559Z,46.70
2023-09-02T16:39:43.987Z,46.80
2023-09-02T16:42:11.117Z,46.80
2023-09-02T16:44:38.020Z,46.60
2023-09-02T16:47:05.100Z,46.80
2023-09-02T16:49:32.128Z,46.90
2023-09-02T16:52:08.975Z,47.20
2023-09-02T16:54:37.616Z,47.30
2023-09-02T16:57:04.731Z,46.80
2023-09-02T16:59:31.683Z,46.60
2023-09-02T17:01:59.970Z,46.50
2023-09-02T17:04:26.905Z,47.00
2023-09-02T17:06:57.418Z,47.20
2023-09-02T17:09:27.014Z,46.70
2023-09-02T17:11:53.916Z,46.40
2023-09-02T17:14:20.871Z,46.80
2023-09-02T17:16:49.172Z,46.60
2023-09-02T17:19:18.633Z,46.50
2023-09-02T17:21:46.524Z,46.80
2023-09-02T17:24:19.502Z,46.80
2023-09-02T17:26:46.296Z,46.40
2023-09-02T17:29:15.123Z,46.70
2023-09-02T17:31:42.009Z,46.80
2023-09-02T17:34:08.816Z,47.20
2023-09-02T17:36:36.111Z,47.00
2023-09-02T17:39:04.382Z,46.70
2023-09-02T17:41:31.311Z,46.90
2023-09-02T17:43:58.086Z,46.80
2023-09-02T17:46:24.882Z,46.80
2023-09-02T17:48:51.801Z,47.10
2023-09-02T17:51:18.709Z,47.10
2023-09-02T17:53:45.473Z,47.50
2023-09-02T17:56:12.252Z,47.50
2023-09-02T17:58:39.092Z,47.40
2023-09-02T18:01:05.948Z,47.20
2023-09-02T18:03:33.045Z,47.70
2023-09-02T18:05:59.907Z,47.70
2023-09-02T18:08:35.042Z,48.10
2023-09-02T18:11:13.564Z,48.20
2023-09-02T18:13:40.329Z,48.50
2023-09-02T18:16:07.146Z,51.60
2023-09-02T18:18:34.584Z,51.90
2023-09-02T18:21:01.391Z,52.30
2023-09-02T18:23:28.232Z,52.40
2023-09-02T18:25:55.068Z,53.30
2023-09-02T18:28:22.122Z,53.30
2023-09-02T18:30:48.993Z,53.80
2023-09-02T18:33:15.820Z,53.90
2023-09-02T18:35:42.600Z,54.20
2023-09-02T18:38:09.425Z,54.20
2023-09-02T18:40:36.250Z,54.50
2023-09-02T18:43:03.116Z,54.60
2023-09-02T18:45:29.880Z,54.80
2023-09-02T18:47:56.846Z,54.30
2023-09-02T18:50:29.644Z,54.10
2023-09-02T18:52:57.318Z,55.40
2023-09-02T18:55:25.703Z,55.30
2023-09-02T18:57:53.349Z,55.00
2023-09-02T19:00:20.263Z,55.20
2023-09-02T19:02:47.160Z,55.30
2023-09-02T19:05:14.058Z,55.40
2023-09-02T19:07:40.976Z,55.50
2023-09-02T19:10:09.577Z,55.80
2023-09-02T19:12:36.530Z,55.90
2023-09-02T19:15:03.692Z,56.10
2023-09-02T19:17:32.516Z,56.10
2023-09-02T19:19:59.449Z,56.40
2023-09-02T19:22:26.308Z,56.70
2023-09-02T19:24:53.094Z,56.80
2023-09-02T19:27:19.950Z,56.90
2023-09-02T19:29:46.790Z,56.80
2023-09-02T19:32:13.591Z,56.60
2023-09-02T19:34:40.698Z,56.40
2023-09-02T19:37:07.491Z,56.60
2023-09-02T19:39:34.595Z,57.10
2023-09-02T19:42:01.431Z,57.20
2023-09-02T19:44:33.605Z,57.30
2023-09-02T19:47:00.356Z,57.40
2023-09-02T19:49:27.200Z,57.40
2023-09-02T19:51:54.200Z,57.50
2023-09-02T19:54:21.476Z,57.50
2023-09-02T19:56:48.260Z,57.60
2023-09-02T19:59:15.082Z,58.00
2023-09-02T20:01:42.109Z,57.70
2023-09-02T20:04:10.249Z,57.80
2023-09-02T20:06:37.140Z,58.00
2023-09-02T20:09:04.139Z,58.00
2023-09-02T20:11:30.983Z,58.10
2023-09-02T20:13:59.238Z,58.60
2023-09-02T20:16:26.354Z,58.70
2023-09-02T20:18:53.147Z,59.00
2023-09-02T20:21:19.890Z,59.00
2023-09-02T20:23:46.682Z,59.20
2023-09-02T20:26:13.912Z,59.40
2023-09-02T20:28:41.163Z,59.70
2023-09-02T20:31:14.776Z,59.60
2023-09-02T20:33:41.713Z,58.80
2023-09-02T20:36:18.681Z,58.80
2023-09-02T20:38:46.036Z,58.00
2023-09-02T20:41:14.395Z,57.50
2023-09-02T20:43:41.530Z,57.30
2023-09-02T20:46:15.407Z,57.00
2023-09-02T20:48:42.945Z,57.10
2023-09-02T20:51:11.768Z,57.50
2023-09-02T20:53:39.689Z,57.90
2023-09-02T20:56:06.525Z,58.90
2023-09-02T20:58:33.392Z,58.70
2023-09-02T21:01:04.879Z,58.90
2023-09-02T21:03:31.792Z,58.60
2023-09-02T21:05:58.708Z,59.20
2023-09-02T21:08:25.551Z,59.80
2023-09-02T21:10:52.328Z,60.00
2023-09-02T21:13:19.420Z,60.20
2023-09-02T21:15:46.253Z,0.00
2023-09-02T21:18:13.113Z,61.30
2023-09-02T21:20:43.240Z,61.40
2023-09-02T21:23:10.069Z,61.40
2023-09-02T21:25:36.854Z,61.80
2023-09-02T21:28:03.806Z,62.00
2023-09-02T21:30:30.715Z,62.20
2023-09-02T21:32:57.569Z,62.60
2023-09-02T21:35:24.357Z,62.30
2023-09-02T21:37:51.127Z,62.60
2023-09-02T21:40:18.055Z,62.80
2023-09-02T21:42:44.875Z,62.40
2023-09-02T21:45:12.003Z,0.00
2023-09-02T21:47:38.913Z,62.70
2023-09-02T21:50:06.409Z,62.60
2023-09-02T21:52:33.187Z,62.80
2023-09-02T21:55:00.007Z,62.80
2023-09-02T21:57:26.808Z,63.20
2023-09-02T21:59:53.676Z,63.40
2023-09-02T22:02:22.853Z,63.20
2023-09-02T22:04:49.717Z,63.30
2023-09-02T22:07:16.511Z,63.00
2023-09-02T22:09:43.386Z,63.00
2023-09-02T22:12:10.146Z,63.10
2023-09-02T22:14:36.959Z,63.00
2023-09-02T22:17:03.902Z,63.10
2023-09-02T22:19:32.986Z,62.90
2023-09-02T22:21:59.943Z,63.10
2023-09-02T22:24:27.218Z,62.90
2023-09-02T22:26:54.131Z,63.10
2023-09-02T22:29:20.893Z,62.90
2023-09-02T22:31:47.857Z,62.90
2023-09-02T22:34:14.704Z,62.70
2023-09-02T22:36:41.547Z,62.90
2023-09-02T22:39:10.075Z,62.70
2023-09-02T22:41:37.702Z,62.70
2023-09-02T22:44:04.636Z,62.60
2023-09-02T22:46:31.474Z,62.70
2023-09-02T22:48:58.229Z,62.80
2023-09-02T22:51:25.268Z,63.00
2023-09-02T22:53:52.154Z,63.40
2023-09-02T22:56:18.933Z,63.70
2023-09-02T22:58:45.773Z,63.80
2023-09-02T23:01:13.986Z,64.00
2023-09-02T23:03:43.702Z,64.00
2023-09-02T23:06:12.473Z,64.20
2023-09-02T23:08:39.865Z,64.40
2023-09-02T23:11:06.966Z,64.60
2023-09-02T23:13:33.987Z,64.50
2023-09-02T23:16:04.915Z,64.80
2023-09-02T23:18:32.174Z,65.60
2023-09-02T23:21:12.117Z,65.10
2023-09-02T23:23:39.549Z,65.60
2023-09-02T23:26:06.442Z,65.80
2023-09-02T23:28:33.308Z,66.50
2023-09-02T23:31:00.489Z,66.80
2023-09-02T23:33:27.559Z,67.20
2023-09-02T23:35:55.542Z,67.50
2023-09-02T23:38:24.916Z,67.30
2023-09-02T23:40:52.901Z,67.00
2023-09-02T23:43:20.618Z,67.30
2023-09-02T23:45:49.262Z,67.20
2023-09-02T23:48:16.656Z,67.40
2023-09-02T23:50:49.141Z,67.10
2023-09-02T23:53:16.159Z,67.30
2023-09-02T23:55:43.819Z,67.50
2023-09-02T23:58:11.045Z,67.70
